Time;durP1;ratioP1;P1;durP2;ratioP2;P2;SDS_P1;SDS_P2;PMS_P1;PMS_P2;Temp;Humidity;BMP_temperature;BMP_pressure;BME280_temperature;BME280_humidity;BME280_pressure;Samples;Min_cycle;Max_cycle;Signal;HPM_P1;HPM_P2
2022/01/24 00:00:21;;;;;;;0.38;0.38;;;5.80;99.90;;;;;;5003970;28;20042;-77
2022/01/24 00:02:47;;;;;;;1.95;1.83;;;5.80;99.90;;;;;;5013898;28;20050;-77
2022/01/24 00:05:13;;;;;;;0.75;0.75;;;5.80;99.90;;;;;;5007952;28;20053;-77
2022/01/24 00:07:38;;;;;;;1.30;1.17;;;5.80;99.90;;;;;;5004584;28;20057;-77
2022/01/24 00:10:09;;;;;;;0.20;0.20;;;5.80;99.90;;;;;;5018458;28;20159;-78
2022/01/24 00:17:36;;;;;;;1.25;1.15;;;5.70;99.90;;;;;;5017306;28;20092;-77
2022/01/24 00:28:04;;;;;;;0.57;0.57;;;5.70;99.90;;;;;;5008145;28;20458;-77
2022/01/24 00:30:29;;;;;;;1.20;1.20;;;5.70;99.90;;;;;;4994957;28;20044;-77
2022/01/24 00:32:55;;;;;;;0.35;0.35;;;5.70;99.90;;;;;;4999297;28;20068;-77
2022/01/24 00:35:21;;;;;;;0.40;0.40;;;5.70;99.90;;;;;;5005504;28;20033;-77
2022/01/24 00:37:46;;;;;;;0.38;0.38;;;5.70;99.90;;;;;;4997793;28;20632;-77
2022/01/24 00:40:13;;;;;;;1.55;1.35;;;5.70;99.90;;;;;;5006853;28;20044;-77
2022/01/24 00:42:50;;;;;;;3.10;1.67;;;5.70;99.90;;;;;;5018214;28;20130;-77
2022/01/24 00:45:32;;;;;;;0.40;0.40;;;5.60;99.90;;;;;;5008833;28;20071;-77
2022/01/24 00:55:54;;;;;;;1.98;1.55;;;5.60;99.90;;;;;;5020928;28;20041;-77
2022/01/24 00:58:19;;;;;;;0.40;0.40;;;5.60;99.90;;;;;;5006260;28;20424;-77
2022/01/24 01:00:45;;;;;;;1.00;0.82;;;5.60;99.90;;;;;;5011109;28;20420;-77
2022/01/24 01:03:10;;;;;;;0.73;0.73;;;5.60;99.90;;;;;;5007529;28;20038;-77
2022/01/24 01:19:18;;;;;;;1.65;1.38;;;5.60;99.90;;;;;;5029061;28;20057;-77
2022/01/24 01:21:44;;;;;;;0.40;0.40;;;5.50;99.90;;;;;;5016744;28;20049;-77
2022/01/24 01:24:10;;;;;;;0.85;0.85;;;5.50;99.90;;;;;;5007011;28;20057;-77
2022/01/24 01:26:47;;;;;;;1.67;1.15;;;5.50;99.90;;;;;;5028330;28;20705;-77
2022/01/24 01:29:16;;;;;;;1.30;1.17;;;5.50;99.90;;;;;;5007670;28;20513;-77
2022/01/24 01:31:51;;;;;;;0.93;0.88;;;5.40;99.90;;;;;;5015535;28;20072;-77
2022/01/24 01:39:49;;;;;;;0.95;0.95;;;5.40;99.90;;;;;;5025994;28;20045;-77
2022/01/24 01:55:39;;;;;;;1.58;1.40;;;5.30;99.90;;;;;;5010346;28;20088;-77
2022/01/24 01:58:07;;;;;;;1.27;0.82;;;5.30;99.90;;;;;;4999306;28;20048;-77
2022/01/24 02:00:34;;;;;;;1.00;0.98;;;5.30;99.90;;;;;;5010479;28;20060;-77
2022/01/24 02:03:00;;;;;;;0.50;0.50;;;5.30;99.90;;;;;;5004791;28;20045;-77
2022/01/24 02:05:26;;;;;;;1.77;1.38;;;5.30;99.90;;;;;;5002351;28;20033;-77
2022/01/24 02:07:53;;;;;;;1.25;1.15;;;5.30;99.90;;;;;;5019891;28;20095;-77
2022/01/24 02:10:20;;;;;;;1.35;1.10;;;5.30;99.90;;;;;;5024910;28;20782;-77
2022/01/24 02:12:47;;;;;;;0.70;0.70;;;5.30;99.90;;;;;;5009457;28;20047;-77
2022/01/24 02:15:18;;;;;;;1.60;1.02;;;5.30;99.90;;;;;;5006296;28;20402;-77
2022/01/24 02:23:02;;;;;;;1.38;1.27;;;5.20;99.90;;;;;;5019955;28;20137;-77
2022/01/24 02:25:30;;;;;;;1.02;1.02;;;5.20;99.90;;;;;;5018789;28;20160;-77
2022/01/24 02:28:00;;;;;;;4.47;2.78;;;5.20;99.90;;;;;;5012904;28;20050;-77
2022/01/24 02:32:57;;;;;;;3.28;1.88;;;5.20;99.90;;;;;;5019219;28;20460;-77
2022/01/24 02:35:23;;;;;;;0.60;0.60;;;5.20;99.90;;;;;;5003226;28;20041;-77
2022/01/24 02:37:50;;;;;;;0.30;0.30;;;5.20;99.90;;;;;;5005204;28;20541;-77
2022/01/24 02:40:19;;;;;;;1.80;1.23;;;5.20;99.90;;;;;;5023239;28;20076;-77
2022/01/24 02:48:26;;;;;;;0.55;0.55;;;5.20;99.90;;;;;;5019697;28;20471;-77
2022/01/24 02:51:17;;;;;;;0.80;0.80;;;5.20;99.90;;;;;;5010646;28;20447;-77
2022/01/24 02:53:43;;;;;;;0.60;0.60;;;5.20;99.90;;;;;;5009383;28;20049;-77
2022/01/24 02:56:09;;;;;;;0.30;0.30;;;5.20;99.90;;;;;;5003498;28;20120;-77
2022/01/24 02:58:35;;;;;;;0.20;0.20;;;5.20;99.90;;;;;;5008007;28;20041;-77
2022/01/24 03:01:06;;;;;;;0.40;0.40;;;5.20;99.90;;;;;;5008209;28;20052;-77
2022/01/24 03:03:33;;;;;;;1.70;1.30;;;5.20;99.90;;;;;;5010357;28;20128;-77
2022/01/24 03:05:59;;;;;;;0.35;0.35;;;5.20;99.90;;;;;;5021117;28;20272;-77
2022/01/24 03:08:24;;;;;;;0.80;0.80;;;5.20;99.90;;;;;;5006117;28;20038;-77
2022/01/24 03:10:51;;;;;;;0.55;0.55;;;5.20;99.90;;;;;;5002599;28;20079;-77
2022/01/24 03:13:32;;;;;;;0.73;0.73;;;5.20;99.90;;;;;;5012956;28;20120;-77
2022/01/24 03:15:59;;;;;;;0.60;0.60;;;5.20;99.90;;;;;;5024337;28;20106;-77
2022/01/24 03:18:26;;;;;;;0.82;0.82;;;5.20;99.90;;;;;;5006324;28;20058;-77
2022/01/24 03:20:52;;;;;;;0.20;0.20;;;5.20;99.90;;;;;;5019646;28;20120;-77
2022/01/24 03:23:19;;;;;;;0.40;0.40;;;5.20;99.90;;;;;;5007893;28;20038;-77
2022/01/24 03:25:45;;;;;;;1.20;1.10;;;5.20;99.90;;;;;;5009178;28;20152;-77
2022/01/24 03:28:11;;;;;;;0.40;0.40;;;5.20;99.90;;;;;;5019142;28;20128;-77
2022/01/24 03:30:40;;;;;;;0.20;0.20;;;5.10;99.90;;;;;;5006823;28;20103;-77
2022/01/24 03:33:06;;;;;;;0.77;0.77;;;5.10;99.90;;;;;;5006827;28;20038;-77
2022/01/24 03:35:32;;;;;;;0.65;0.65;;;5.10;99.90;;;;;;5005233;28;20041;-77
2022/01/24 03:37:59;;;;;;;1.77;1.67;;;5.10;99.90;;;;;;5025332;28;20552;-77
2022/01/24 03:40:24;;;;;;;0.40;0.40;;;5.10;99.90;;;;;;4998993;28;20057;-77
2022/01/24 03:42:50;;;;;;;0.30;0.30;;;5.10;99.90;;;;;;5007567;28;20845;-77
2022/01/24 03:45:23;;;;;;;0.30;0.30;;;5.10;99.90;;;;;;5010009;28;20069;-77
2022/01/24 03:48:06;;;;;;;0.80;0.63;;;5.10;99.90;;;;;;5008776;28;20084;-77
2022/01/24 03:50:32;;;;;;;2.90;0.85;;;5.10;99.90;;;;;;5024627;28;20456;-77
2022/01/24 03:52:58;;;;;;;0.60;0.60;;;5.20;99.90;;;;;;5019494;28;20445;-77
2022/01/24 03:55:24;;;;;;;0.20;0.20;;;5.20;99.90;;;;;;5016118;28;20049;-77
2022/01/24 03:57:49;;;;;;;0.38;0.38;;;5.10;99.90;;;;;;5025037;28;20053;-77
2022/01/24 04:00:15;;;;;;;0.77;0.75;;;5.20;99.90;;;;;;5013633;28;20059;-77
2022/01/24 04:02:41;;;;;;;0.75;0.70;;;5.10;99.90;;;;;;4998405;28;20045;-77
2022/01/24 04:05:07;;;;;;;0.50;0.50;;;5.10;99.90;;;;;;5008664;28;20072;-77
2022/01/24 04:07:33;;;;;;;0.38;0.38;;;5.20;99.90;;;;;;5003275;28;20099;-77
2022/01/24 04:10:05;;;;;;;5.47;1.92;;;5.20;99.90;;;;;;5009676;28;20052;-77
2022/01/24 04:12:31;;;;;;;0.40;0.40;;;5.20;99.90;;;;;;5018411;28;20037;-77
2022/01/24 04:15:10;;;;;;;0.47;0.47;;;5.10;99.90;;;;;;5004918;28;20051;-77
2022/01/24 04:17:47;;;;;;;1.65;1.55;;;5.10;99.90;;;;;;5003602;28;20044;-77
2022/01/24 04:22:59;;;;;;;5.18;1.20;;;5.10;99.90;;;;;;5021800;28;20045;-77
2022/01/24 04:25:25;;;;;;;3.95;1.83;;;5.10;99.90;;;;;;5015580;28;20144;-77
2022/01/24 04:27:54;;;;;;;1.85;1.75;;;5.10;99.90;;;;;;4997327;28;20124;-77
2022/01/24 04:30:22;;;;;;;0.50;0.50;;;5.10;99.90;;;;;;4999289;28;20042;-77
2022/01/24 04:32:48;;;;;;;2.90;2.17;;;5.10;99.90;;;;;;5002721;28;20042;-77
2022/01/24 04:35:14;;;;;;;1.13;1.05;;;5.10;99.90;;;;;;5020971;28;20106;-77
2022/01/24 04:37:40;;;;;;;9.23;3.13;;;5.10;99.90;;;;;;5004827;28;20581;-77
2022/01/24 04:40:07;;;;;;;0.40;0.40;;;5.10;99.90;;;;;;5018198;28;20077;-77
2022/01/24 04:42:44;;;;;;;0.82;0.82;;;5.10;99.90;;;;;;4997637;28;20042;-77
2022/01/24 04:45:28;;;;;;;0.30;0.30;;;5.10;99.90;;;;;;5004460;28;20077;-77
2022/01/24 04:50:57;;;;;;;0.80;0.80;;;5.10;99.90;;;;;;5021853;28;20056;-77
2022/01/24 04:56:03;;;;;;;3.85;2.05;;;5.10;99.90;;;;;;5019090;28;20501;-77
2022/01/24 04:58:30;;;;;;;0.38;0.38;;;5.10;99.90;;;;;;5023393;28;20042;-77
2022/01/24 05:00:55;;;;;;;3.20;2.72;;;5.10;99.90;;;;;;5008510;28;20041;-77
2022/01/24 05:03:21;;;;;;;4.78;3.15;;;5.10;99.90;;;;;;5022734;28;20056;-77
2022/01/24 05:05:47;;;;;;;1.63;1.42;;;5.10;99.90;;;;;;5004147;28;20129;-77
2022/01/24 05:08:14;;;;;;;3.83;1.85;;;5.10;99.90;;;;;;5015188;28;20046;-77
2022/01/24 05:10:54;;;;;;;3.08;2.22;;;5.00;99.90;;;;;;5005351;28;20046;-77
2022/01/24 05:23:27;;;;;;;2.63;1.80;;;5.00;99.90;;;;;;5015265;28;20057;-77
2022/01/24 05:24:18;;;;;;;0.20;0.20;;;5.00;99.90;;;;;;5019505;28;20045;-77
2022/01/24 05:26:43;;;;;;;0.90;0.90;;;5.00;99.90;;;;;;5002737;28;20060;-77
2022/01/24 05:29:09;;;;;;;0.77;0.77;;;5.00;99.90;;;;;;5008601;28;20155;-77
2022/01/24 05:31:34;;;;;;;3.60;1.52;;;5.00;99.90;;;;;;5017809;28;20053;-77
2022/01/24 05:34:00;;;;;;;0.38;0.38;;;5.00;99.90;;;;;;5023470;28;20095;-77
2022/01/24 05:36:25;;;;;;;0.40;0.40;;;5.00;99.90;;;;;;5007690;28;20498;-77
2022/01/24 05:38:51;;;;;;;0.63;0.63;;;5.00;99.90;;;;;;5010932;28;20047;-77
2022/01/24 05:41:17;;;;;;;0.80;0.75;;;5.10;99.90;;;;;;5024753;28;20073;-77
2022/01/24 05:43:43;;;;;;;0.30;0.30;;;5.00;99.90;;;;;;5017273;28;20049;-77
2022/01/24 05:46:09;;;;;;;0.82;0.82;;;5.00;99.90;;;;;;5022649;28;20717;-77
2022/01/24 05:48:34;;;;;;;0.38;0.38;;;5.00;99.90;;;;;;5022527;28;20049;-76
2022/01/24 05:51:00;;;;;;;1.92;1.10;;;5.00;99.90;;;;;;5027377;28;20042;-77
2022/01/24 05:53:26;;;;;;;6.03;3.03;;;5.00;99.90;;;;;;5027099;28;20041;-77
2022/01/24 05:55:53;;;;;;;1.45;1.35;;;5.00;99.90;;;;;;5025369;28;20041;-77
2022/01/24 05:58:18;;;;;;;1.88;1.30;;;5.00;99.90;;;;;;5023097;28;20042;-77
2022/01/24 06:00:44;;;;;;;0.20;0.20;;;5.00;99.90;;;;;;5026732;28;20529;-77
2022/01/24 06:03:09;;;;;;;0.30;0.30;;;5.00;99.90;;;;;;5005579;28;20034;-77
2022/01/24 06:05:35;;;;;;;1.60;1.02;;;5.00;99.90;;;;;;5010373;28;20049;-77
2022/01/24 06:08:00;;;;;;;0.93;0.93;;;5.00;99.90;;;;;;5018578;28;20128;-77
2022/01/24 06:10:26;;;;;;;1.23;1.23;;;5.00;99.90;;;;;;5008749;28;20092;-77
2022/01/24 06:12:52;;;;;;;1.55;1.45;;;5.00;99.90;;;;;;5007091;28;20029;-77
2022/01/24 06:15:18;;;;;;;1.42;1.05;;;5.00;99.90;;;;;;5011899;28;21850;-77
2022/01/24 06:17:43;;;;;;;1.15;1.13;;;5.00;99.90;;;;;;5025362;28;20497;-77
2022/01/24 06:20:09;;;;;;;2.38;2.13;;;5.00;99.90;;;;;;5007807;28;20057;-77
2022/01/24 06:22:39;;;;;;;3.38;2.75;;;5.00;99.90;;;;;;5002099;28;20037;-77
2022/01/24 06:25:07;;;;;;;0.70;0.70;;;5.00;99.90;;;;;;5015189;28;20128;-77
2022/01/24 06:27:32;;;;;;;22.40;13.77;;;5.00;99.90;;;;;;5005693;28;20054;-77
2022/01/24 06:29:58;;;;;;;2.75;2.08;;;5.00;99.90;;;;;;5009339;28;20497;-77
2022/01/24 06:32:23;;;;;;;1.35;1.33;;;5.00;99.90;;;;;;5015073;28;20111;-77
2022/01/24 06:34:49;;;;;;;6.63;2.20;;;5.00;99.90;;;;;;5004472;28;20119;-77
2022/01/24 06:37:14;;;;;;;1.85;1.55;;;5.00;99.90;;;;;;5022592;28;20080;-77
2022/01/24 06:39:40;;;;;;;2.33;2.00;;;5.00;99.90;;;;;;5011224;28;20049;-77
2022/01/24 06:42:14;;;;;;;2.95;1.73;;;5.00;99.90;;;;;;5010084;28;20080;-77
2022/01/24 06:44:40;;;;;;;0.52;0.52;;;5.00;99.90;;;;;;5022022;28;20054;-76
2022/01/24 06:47:06;;;;;;;4.95;3.53;;;5.00;99.90;;;;;;5012850;28;20034;-77
2022/01/24 06:49:33;;;;;;;1.95;1.30;;;5.00;99.90;;;;;;4997360;28;20516;-77
2022/01/24 06:51:59;;;;;;;0.40;0.40;;;5.00;99.90;;;;;;4999029;28;20115;-77
2022/01/24 06:54:24;;;;;;;4.43;1.45;;;5.00;99.90;;;;;;5008594;28;20050;-77
2022/01/24 06:56:50;;;;;;;0.32;0.32;;;5.00;99.90;;;;;;5018099;28;20069;-77
2022/01/24 06:59:16;;;;;;;0.30;0.30;;;5.00;99.90;;;;;;5023845;28;20532;-77
2022/01/24 07:01:41;;;;;;;1.00;1.00;;;5.00;99.90;;;;;;5019702;28;20037;-77
2022/01/24 07:04:07;;;;;;;3.25;1.15;;;5.00;99.90;;;;;;5028100;28;20143;-77
2022/01/24 07:06:32;;;;;;;3.50;2.15;;;5.00;99.90;;;;;;4997755;28;20128;-77
2022/01/24 07:08:58;;;;;;;1.85;1.65;;;5.00;99.90;;;;;;4995393;28;20128;-77
2022/01/24 07:11:24;;;;;;;1.20;0.75;;;5.00;99.90;;;;;;5018522;28;20068;-77
2022/01/24 07:13:50;;;;;;;1.45;0.80;;;5.00;99.90;;;;;;5011337;28;20053;-77
2022/01/24 07:16:16;;;;;;;0.20;0.20;;;4.90;99.90;;;;;;5024006;28;20074;-77
2022/01/24 07:18:58;;;;;;;0.35;0.35;;;4.90;99.90;;;;;;5009271;28;20038;-77
2022/01/24 07:21:24;;;;;;;2.40;1.33;;;4.90;99.90;;;;;;5003229;28;20092;-77
2022/01/24 07:23:49;;;;;;;3.72;1.05;;;4.90;99.90;;;;;;5019219;28;20050;-77
2022/01/24 07:26:15;;;;;;;0.57;0.57;;;4.90;99.90;;;;;;5010823;28;20741;-77
2022/01/24 07:28:41;;;;;;;0.45;0.45;;;4.90;99.90;;;;;;5018034;28;20053;-77
2022/01/24 07:31:06;;;;;;;1.80;1.38;;;4.90;99.90;;;;;;5018848;28;20053;-77
2022/01/24 07:33:32;;;;;;;1.50;1.00;;;4.90;99.90;;;;;;4996102;28;20058;-77
2022/01/24 07:35:58;;;;;;;4.47;2.75;;;4.90;99.90;;;;;;5023280;28;20048;-77
2022/01/24 07:38:24;;;;;;;0.57;0.57;;;5.00;99.90;;;;;;5009570;28;20040;-77
2022/01/24 07:40:53;;;;;;;1.15;1.15;;;5.00;99.90;;;;;;5022427;28;20479;-77
2022/01/24 07:43:18;;;;;;;5.20;3.22;;;5.00;99.90;;;;;;5010745;28;20498;-77
2022/01/24 07:45:47;;;;;;;1.67;0.93;;;5.00;99.90;;;;;;5012206;28;20050;-77
2022/01/24 07:48:14;;;;;;;0.35;0.35;;;5.00;99.90;;;;;;5000985;28;20041;-77
2022/01/24 07:50:42;;;;;;;10.63;6.38;;;5.10;99.90;;;;;;5017478;28;20544;-77
2022/01/24 07:53:09;;;;;;;3.50;2.67;;;5.10;99.90;;;;;;5022113;28;20041;-77
2022/01/24 07:55:35;;;;;;;0.52;0.52;;;5.10;99.90;;;;;;5023930;28;20050;-77
2022/01/24 07:58:01;;;;;;;2.97;2.58;;;5.20;99.90;;;;;;5017448;28;20062;-77
2022/01/24 08:00:27;;;;;;;1.85;0.98;;;5.20;99.90;;;;;;4989986;28;20077;-77
2022/01/24 08:02:53;;;;;;;0.40;0.40;;;5.20;99.90;;;;;;5005794;28;20038;-77
2022/01/24 08:05:18;;;;;;;0.77;0.77;;;5.20;99.90;;;;;;4991211;28;20049;-77
2022/01/24 08:07:44;;;;;;;6.75;3.22;;;5.20;99.90;;;;;;4986685;28;20049;-77
2022/01/24 08:10:10;;;;;;;1.75;1.10;;;5.30;99.90;;;;;;5014625;28;20049;-77
2022/01/24 08:12:38;;;;;;;9.13;5.45;;;5.20;99.90;;;;;;5002644;28;20093;-77
2022/01/24 08:15:04;;;;;;;2.70;2.40;;;5.20;99.90;;;;;;5005796;28;20057;-77
2022/01/24 08:17:30;;;;;;;2.25;2.15;;;5.30;99.90;;;;;;5002721;28;20062;-77
2022/01/24 08:19:56;;;;;;;1.85;1.67;;;5.30;99.90;;;;;;5012455;28;20081;-77
2022/01/24 08:22:22;;;;;;;2.75;1.48;;;5.30;99.90;;;;;;5024599;28;20147;-77
2022/01/24 08:24:50;;;;;;;3.17;2.88;;;5.20;99.90;;;;;;5008358;28;20669;-76
2022/01/24 08:27:18;;;;;;;9.70;3.55;;;5.20;99.90;;;;;;5003744;28;20041;-76
2022/01/24 08:29:48;;;;;;;36.10;5.95;;;5.30;99.90;;;;;;5020050;28;20053;-76
2022/01/24 08:32:14;;;;;;;0.20;0.20;;;5.30;99.90;;;;;;5005096;28;20068;-77
2022/01/24 08:34:40;;;;;;;0.30;0.30;;;5.30;99.90;;;;;;5016707;28;20625;-77
2022/01/24 08:37:07;;;;;;;2.30;1.98;;;5.30;99.90;;;;;;5017422;28;20077;-76
2022/01/24 08:39:32;;;;;;;1.88;1.58;;;5.30;99.90;;;;;;4999691;28;20073;-77
2022/01/24 08:42:09;;;;;;;0.98;0.98;;;5.30;99.90;;;;;;5001043;28;20108;-77
2022/01/24 08:47:19;;;;;;;0.30;0.30;;;5.30;99.90;;;;;;5019076;28;20049;-76
2022/01/24 08:49:45;;;;;;;1.85;1.60;;;5.30;99.90;;;;;;5017162;28;20046;-77
2022/01/24 08:52:11;;;;;;;0.50;0.50;;;5.30;99.90;;;;;;5010003;28;20064;-77
2022/01/24 08:54:36;;;;;;;0.30;0.30;;;5.30;99.90;;;;;;5009286;28;20041;-77
2022/01/24 08:57:02;;;;;;;0.20;0.20;;;5.30;99.90;;;;;;5009686;28;20056;-77
2022/01/24 08:59:30;;;;;;;0.20;0.20;;;5.30;99.90;;;;;;5009350;28;20039;-77
2022/01/24 09:01:56;;;;;;;0.20;0.20;;;5.30;99.90;;;;;;5000752;28;20532;-77
2022/01/24 09:04:21;;;;;;;1.00;1.00;;;5.40;99.90;;;;;;4990154;28;20038;-77
2022/01/24 09:06:47;;;;;;;9.35;5.75;;;5.40;99.90;;;;;;5017892;28;20136;-77
2022/01/24 09:09:14;;;;;;;10.10;6.47;;;5.40;99.90;;;;;;5013019;28;20037;-77
2022/01/24 09:11:40;;;;;;;1.33;1.33;;;5.40;99.90;;;;;;5022508;28;20058;-77
2022/01/24 09:14:06;;;;;;;2.65;2.40;;;5.50;99.90;;;;;;5018544;28;20044;-77
2022/01/24 09:16:32;;;;;;;1.65;1.33;;;5.50;99.90;;;;;;5020203;28;20063;-77
2022/01/24 09:18:58;;;;;;;0.60;0.60;;;5.50;99.90;;;;;;5016786;28;20034;-77
2022/01/24 09:21:24;;;;;;;1.65;1.38;;;5.50;99.90;;;;;;5014925;28;20737;-74
2022/01/24 09:23:49;;;;;;;1.02;1.02;;;5.60;99.90;;;;;;5009536;28;20577;-74
2022/01/24 09:26:16;;;;;;;2.42;2.15;;;5.60;99.90;;;;;;5010466;28;20041;-75
2022/01/24 09:28:41;;;;;;;0.38;0.38;;;5.60;99.90;;;;;;5010563;28;20037;-77
2022/01/24 09:31:07;;;;;;;0.20;0.20;;;5.60;99.90;;;;;;5010095;28;20497;-77
2022/01/24 09:33:33;;;;;;;4.35;3.50;;;5.60;99.90;;;;;;5025047;28;20042;-77
2022/01/24 09:36:00;;;;;;;0.73;0.73;;;5.60;99.90;;;;;;5003800;28;20095;-77
2022/01/24 09:38:32;;;;;;;1.92;1.75;;;5.60;99.90;;;;;;5009997;28;20445;-77
2022/01/24 09:41:03;;;;;;;21.38;9.65;;;5.70;99.90;;;;;;5009840;28;20060;-76
2022/01/24 09:43:28;;;;;;;1.25;1.15;;;5.70;99.90;;;;;;5010260;28;20053;-77
2022/01/24 09:45:56;;;;;;;0.88;0.88;;;5.70;99.90;;;;;;5008965;28;20052;-77
2022/01/24 09:48:22;;;;;;;4.45;4.07;;;5.70;99.90;;;;;;5017727;28;20048;-77
2022/01/24 09:50:51;;;;;;;7.15;5.07;;;5.80;99.90;;;;;;5029595;28;20096;-75
2022/01/24 09:53:17;;;;;;;0.82;0.77;;;5.70;99.90;;;;;;5005781;28;20038;-77
2022/01/24 09:55:43;;;;;;;2.80;2.00;;;5.80;99.90;;;;;;5009522;28;20486;-76
2022/01/24 09:58:09;;;;;;;8.50;4.78;;;5.80;99.90;;;;;;5009472;28;20052;-77
2022/01/24 10:00:35;;;;;;;8.80;3.80;;;5.80;99.90;;;;;;5015794;28;20084;-76
2022/01/24 10:03:01;;;;;;;4.85;2.30;;;5.80;99.90;;;;;;5029296;28;20131;-75
2022/01/24 10:05:33;;;;;;;3.92;2.13;;;5.80;99.90;;;;;;5012179;28;20069;-75
2022/01/24 10:08:02;;;;;;;12.38;7.07;;;5.80;99.90;;;;;;5012975;28;20052;-77
2022/01/24 10:10:48;;;;;;;0.93;0.93;;;5.90;99.90;;;;;;5007478;28;20612;-74
2022/01/24 10:16:25;;;;;;;1.70;1.60;;;5.90;99.90;;;;;;5021438;28;20049;-75
2022/01/24 10:19:02;;;;;;;1.92;1.42;;;5.90;99.90;;;;;;5009465;28;20466;-75
2022/01/24 10:21:28;;;;;;;3.40;3.13;;;5.90;99.90;;;;;;4992685;28;20045;-75
2022/01/24 10:23:56;;;;;;;2.90;1.92;;;5.90;99.90;;;;;;5010733;28;20425;-75
2022/01/24 10:26:24;;;;;;;3.15;2.85;;;5.90;99.90;;;;;;5008669;28;20359;-77
2022/01/24 10:28:50;;;;;;;1.80;1.40;;;6.00;99.90;;;;;;5009131;28;20099;-77
2022/01/24 10:31:23;;;;;;;21.02;8.98;;;5.90;99.90;;;;;;5011635;28;20041;-75
2022/01/24 10:34:07;;;;;;;0.38;0.38;;;6.00;99.90;;;;;;5011930;28;20042;-75
2022/01/24 10:36:45;;;;;;;0.85;0.85;;;6.00;99.90;;;;;;5028567;28;20045;-75
2022/01/24 10:39:21;;;;;;;22.77;9.25;;;5.90;99.90;;;;;;5010429;28;20049;-75
2022/01/24 10:42:26;;;;;;;6.03;2.58;;;6.00;99.90;;;;;;4998997;28;20041;-76
2022/01/24 10:44:53;;;;;;;4.55;3.63;;;6.00;99.90;;;;;;5004058;28;20053;-76
2022/01/24 10:47:27;;;;;;;0.98;0.95;;;6.00;99.90;;;;;;4997844;28;20052;-76
2022/01/24 10:49:52;;;;;;;0.20;0.20;;;6.00;99.90;;;;;;5004118;28;20041;-76
2022/01/24 10:52:23;;;;;;;2.20;2.10;;;6.00;99.90;;;;;;5000186;28;20559;-77
2022/01/24 10:54:52;;;;;;;8.52;4.57;;;6.00;99.90;;;;;;5025273;28;20050;-77
2022/01/24 10:57:27;;;;;;;2.80;2.53;;;6.00;99.90;;;;;;5006964;28;20041;-77
2022/01/24 11:00:19;;;;;;;4.47;3.22;;;6.00;99.90;;;;;;5011398;28;20045;-77
2022/01/24 11:02:49;;;;;;;8.10;4.37;;;6.00;99.90;;;;;;5021023;28;20042;-76
2022/01/24 11:05:21;;;;;;;15.52;7.93;;;6.00;99.90;;;;;;5008575;28;20085;-77
2022/01/24 11:07:51;;;;;;;27.70;13.70;;;6.00;99.90;;;;;;5007098;28;20116;-77
2022/01/24 11:10:17;;;;;;;4.40;2.20;;;6.10;99.90;;;;;;4992459;28;20077;-76
2022/01/24 11:12:42;;;;;;;3.65;3.05;;;6.10;99.90;;;;;;5013847;28;20058;-76
2022/01/24 11:15:10;;;;;;;12.10;6.03;;;6.10;99.90;;;;;;5016264;28;20037;-77
2022/01/24 11:17:36;;;;;;;10.10;5.47;;;6.10;99.90;;;;;;5027716;28;20050;-76
2022/01/24 11:20:03;;;;;;;32.00;14.68;;;6.10;99.90;;;;;;5025442;28;20049;-77
2022/01/24 11:22:32;;;;;;;1.30;0.93;;;6.00;99.90;;;;;;5008567;28;20208;-77
2022/01/24 11:25:04;;;;;;;2.58;1.98;;;6.10;99.90;;;;;;5006901;28;20066;-76
2022/01/24 11:27:32;;;;;;;0.35;0.35;;;6.00;99.90;;;;;;5008183;28;20054;-77
2022/01/24 11:30:07;;;;;;;2.60;2.40;;;6.10;99.90;;;;;;5010061;28;20092;-77
2022/01/24 11:32:46;;;;;;;1.55;1.40;;;6.10;99.90;;;;;;5027763;28;20711;-76
2022/01/24 11:35:12;;;;;;;1.77;1.65;;;6.10;99.90;;;;;;5007917;28;20045;-76
2022/01/24 11:37:45;;;;;;;18.35;7.20;;;6.10;99.90;;;;;;5027452;28;20401;-76
2022/01/24 11:40:15;;;;;;;3.85;3.53;;;6.10;99.90;;;;;;5010927;28;20059;-77
2022/01/24 11:42:43;;;;;;;19.15;8.55;;;6.10;99.90;;;;;;5006446;28;20491;-76
2022/01/24 11:45:14;;;;;;;0.30;0.30;;;6.20;99.90;;;;;;5007229;28;20049;-77
2022/01/24 11:47:42;;;;;;;4.40;2.22;;;6.20;99.90;;;;;;5010019;28;20057;-76
2022/01/24 11:50:30;;;;;;;26.70;11.05;;;6.10;99.90;;;;;;5018176;28;20049;-76
2022/01/24 11:52:56;;;;;;;5.40;4.78;;;6.10;99.90;;;;;;5017998;28;20154;-76
2022/01/24 11:55:35;;;;;;;17.75;9.10;;;6.10;99.90;;;;;;5020707;28;20454;-77
2022/01/24 11:58:04;;;;;;;15.43;5.53;;;6.10;99.90;;;;;;4996612;28;20103;-77
2022/01/24 12:00:37;;;;;;;24.88;11.57;;;6.10;99.90;;;;;;5001273;28;20060;-77
2022/01/24 12:03:20;;;;;;;5.28;3.45;;;6.10;99.90;;;;;;5019662;28;20041;-76
2022/01/24 12:05:54;;;;;;;20.00;11.10;;;6.10;99.90;;;;;;5012724;28;20151;-76
2022/01/24 12:08:32;;;;;;;8.88;5.55;;;6.10;99.90;;;;;;5008478;28;20053;-76
2022/01/24 12:11:30;;;;;;;7.32;3.97;;;6.00;99.90;;;;;;5011665;28;20157;-77
2022/01/24 12:14:02;;;;;;;18.02;8.10;;;6.00;99.90;;;;;;4997348;28;20042;-76
2022/01/24 12:16:36;;;;;;;6.13;3.60;;;6.00;99.90;;;;;;5015673;28;20129;-77
2022/01/24 12:19:03;;;;;;;7.40;3.42;;;6.00;99.90;;;;;;5018064;28;20045;-76
2022/01/24 12:21:30;;;;;;;2.40;2.17;;;6.00;99.90;;;;;;5013261;28;20115;-76
2022/01/24 12:24:13;;;;;;;2.25;2.10;;;6.00;99.90;;;;;;5012091;28;20045;-77
2022/01/24 12:26:48;;;;;;;6.90;4.28;;;6.00;99.90;;;;;;5018910;28;20125;-76
2022/01/24 12:29:17;;;;;;;7.50;4.07;;;6.00;99.90;;;;;;5006758;28;20045;-76
2022/01/24 12:31:50;;;;;;;13.68;6.78;;;6.00;99.90;;;;;;5015790;28;20045;-76
2022/01/24 12:34:25;;;;;;;;;;;6.10;99.90;;;;;;5023917;28;20049;-76
2022/01/24 12:37:00;;;;;;;3.53;2.55;;;6.10;99.90;;;;;;5003266;28;19929;-76
2022/01/24 12:39:27;;;;;;;11.07;8.20;;;6.10;99.90;;;;;;5021335;28;20096;-76
2022/01/24 12:42:00;;;;;;;0.52;0.52;;;6.10;99.90;;;;;;5005972;28;20045;-76
2022/01/24 12:46:17;;;;;;;;;;;6.10;99.90;;;;;;5021994;28;20049;-76
2022/01/24 12:47:22;;;;;;;0.60;0.60;;;6.10;99.90;;;;;;5027943;28;19925;-77
2022/01/24 12:49:50;;;;;;;8.50;4.60;;;6.20;99.90;;;;;;5032007;28;20041;-76
2022/01/24 12:52:18;;;;;;;11.57;6.45;;;6.20;99.90;;;;;;5015759;28;20095;-76
2022/01/24 12:54:50;;;;;;;1.42;1.33;;;6.20;99.90;;;;;;5004408;28;20046;-76
2022/01/24 12:57:18;;;;;;;4.53;3.70;;;6.20;99.90;;;;;;5014933;28;20045;-76
2022/01/24 13:00:07;;;;;;;0.52;0.52;;;6.20;99.90;;;;;;5029116;28;20050;-76
2022/01/24 13:02:34;;;;;;;5.57;4.50;;;6.20;99.90;;;;;;5009219;28;20057;-77
2022/01/24 13:05:07;;;;;;;11.90;7.20;;;6.20;99.90;;;;;;5009546;28;20056;-77
2022/01/24 13:07:33;;;;;;;5.83;4.77;;;6.20;99.90;;;;;;5022165;28;20087;-77
2022/01/24 13:10:11;;;;;;;5.28;2.70;;;6.20;99.90;;;;;;5011666;28;20970;-76
2022/01/24 13:12:38;;;;;;;11.70;7.10;;;6.20;99.90;;;;;;5014124;28;20052;-76
2022/01/24 13:15:08;;;;;;;1.95;1.50;;;6.20;99.90;;;;;;5019680;28;20037;-77
2022/01/24 13:23:09;;;;;;;2.42;1.90;;;6.10;99.90;;;;;;5027762;28;20061;-76
2022/01/24 13:25:40;;;;;;;14.05;6.38;;;6.10;99.90;;;;;;5025644;28;20462;-76
2022/01/24 13:28:13;;;;;;;4.60;3.03;;;6.10;99.90;;;;;;5025991;28;20046;-76
2022/01/24 13:30:42;;;;;;;8.95;5.40;;;6.10;99.90;;;;;;5025650;28;20068;-76
2022/01/24 13:33:15;;;;;;;6.90;3.13;;;6.10;99.90;;;;;;5015544;28;20617;-76
2022/01/24 13:35:50;;;;;;;1.98;1.27;;;6.00;99.90;;;;;;5018866;28;20045;-76
2022/01/24 13:38:25;;;;;;;20.75;9.73;;;6.00;99.90;;;;;;5027947;28;20045;-76
2022/01/24 13:40:59;;;;;;;22.15;10.38;;;6.00;99.90;;;;;;5027424;28;20045;-76
2022/01/24 13:44:00;;;;;;;15.32;8.90;;;6.00;99.90;;;;;;5030310;28;20959;-76
2022/01/24 13:46:31;;;;;;;23.42;12.10;;;6.00;99.90;;;;;;5028847;28;20053;-76
2022/01/24 13:48:57;;;;;;;11.70;5.60;;;5.90;99.90;;;;;;5029436;28;20041;-76
2022/01/24 13:51:38;;;;;;;1.95;1.55;;;6.00;99.90;;;;;;5015576;28;20033;-76
2022/01/24 13:54:09;;;;;;;3.17;2.75;;;5.90;99.90;;;;;;5028113;28;20049;-76
2022/01/24 13:56:34;;;;;;;5.82;1.80;;;5.90;99.90;;;;;;5046653;28;20525;-76
2022/01/24 13:59:11;;;;;;;0.60;0.60;;;5.90;99.90;;;;;;5025525;28;20049;-76
2022/01/24 14:02:06;;;;;;;1.60;1.27;;;5.90;99.90;;;;;;5022401;28;20045;-76
2022/01/24 14:04:52;;;;;;;2.13;1.27;;;5.90;99.90;;;;;;5023843;28;20582;-76
2022/01/24 14:07:22;;;;;;;1.77;1.67;;;5.90;99.90;;;;;;5008721;28;20551;-76
2022/01/24 14:09:55;;;;;;;1.73;1.42;;;5.90;99.90;;;;;;5009579;28;20043;-76
2022/01/24 14:12:30;;;;;;;0.38;0.38;;;5.90;99.90;;;;;;5023157;28;20037;-76
2022/01/24 14:15:07;;;;;;;0.88;0.82;;;5.90;99.90;;;;;;5009987;28;20478;-76
2022/01/24 14:17:41;;;;;;;0.30;0.30;;;5.90;99.90;;;;;;5014337;28;20520;-76
2022/01/24 14:20:09;;;;;;;1.98;1.88;;;5.90;99.90;;;;;;5013622;28;20048;-76
2022/01/24 14:22:51;;;;;;;2.05;1.45;;;5.90;99.90;;;;;;5008517;28;20045;-76
2022/01/24 14:25:19;;;;;;;5.28;2.85;;;5.90;99.90;;;;;;5015314;28;20045;-76
2022/01/24 14:27:49;;;;;;;27.38;8.10;;;5.90;99.90;;;;;;5011037;28;20072;-76
2022/01/24 14:30:25;;;;;;;0.68;0.68;;;5.90;99.90;;;;;;5036508;28;20367;-76
2022/01/24 14:33:00;;;;;;;17.13;7.57;;;5.80;99.90;;;;;;5016819;28;20629;-76
2022/01/24 14:35:27;;;;;;;11.98;6.85;;;5.80;99.90;;;;;;5022900;28;20041;-76
2022/01/24 14:37:55;;;;;;;0.40;0.40;;;5.80;99.90;;;;;;5019510;28;20041;-76
2022/01/24 14:40:52;;;;;;;1.77;1.67;;;5.80;99.90;;;;;;5026537;28;20136;-76